createdAt,value
2018-11-07T00:00:06.498Z,34.35
2018-11-07T00:02:33.925Z,34.85
2018-11-07T00:05:01.330Z,34.60
2018-11-07T00:07:28.714Z,33.88
2018-11-07T00:09:56.422Z,34.67
2018-11-07T00:12:23.777Z,34.85
2018-11-07T00:14:51.183Z,32.80
2018-11-07T00:17:18.873Z,35.47
2018-11-07T00:19:46.544Z,34.35
2018-11-07T00:22:13.907Z,35.03
2018-11-07T00:24:41.995Z,33.75
2018-11-07T00:27:10.067Z,34.95
2018-11-07T00:29:37.696Z,34.40
2018-11-07T00:32:05.277Z,35.20
2018-11-07T00:34:32.928Z,34.67
2018-11-07T00:37:00.525Z,35.17
2018-11-07T00:39:28.044Z,34.98
2018-11-07T00:41:55.671Z,36.50
2018-11-07T00:44:23.085Z,36.40
2018-11-07T00:46:50.437Z,35.95
2018-11-07T00:49:17.762Z,35.98
2018-11-07T00:51:45.973Z,36.50
2018-11-07T00:54:13.333Z,36.48
2018-11-07T00:56:40.751Z,35.80
2018-11-07T00:59:08.081Z,35.00
2018-11-07T01:01:35.763Z,37.25
2018-11-07T01:04:03.462Z,36.10
2018-11-07T01:06:30.828Z,36.45
2018-11-07T01:08:58.257Z,36.10
2018-11-07T01:11:25.712Z,35.83
2018-11-07T01:13:53.717Z,35.35
2018-11-07T01:16:21.371Z,35.60
2018-11-07T01:18:49.342Z,36.10
2018-11-07T01:21:16.737Z,38.37
2018-11-07T01:23:44.052Z,36.58
2018-11-07T01:26:11.788Z,37.80
2018-11-07T01:28:39.192Z,35.48
2018-11-07T01:31:06.526Z,36.77
2018-11-07T01:33:34.315Z,36.45
2018-11-07T01:36:01.944Z,34.15
2018-11-07T01:38:29.361Z,35.60
2018-11-07T01:40:56.778Z,36.08
2018-11-07T01:43:24.418Z,35.20
2018-11-07T01:45:51.892Z,38.28
2018-11-07T01:48:19.550Z,38.70
2018-11-07T01:50:46.979Z,39.45
2018-11-07T01:53:14.665Z,39.53
2018-11-07T01:55:42.058Z,39.57
2018-11-07T01:58:09.484Z,40.38
2018-11-07T02:00:36.842Z,39.45
2018-11-07T02:03:04.873Z,39.03
2018-11-07T02:05:32.589Z,39.55
2018-11-07T02:08:00.337Z,39.25
2018-11-07T02:10:27.993Z,38.98
2018-11-07T02:12:55.378Z,39.38
2018-11-07T02:15:23.161Z,36.07
2018-11-07T02:17:50.605Z,37.60
2018-11-07T02:20:18.208Z,37.95
2018-11-07T02:22:45.563Z,37.40
2018-11-07T02:25:12.951Z,37.63
2018-11-07T02:27:40.817Z,39.63
2018-11-07T02:30:12.769Z,39.40
2018-11-07T02:32:40.822Z,40.67
2018-11-07T02:35:08.217Z,39.90
2018-11-07T02:37:35.640Z,38.58
2018-11-07T02:40:03.164Z,40.00
2018-11-07T02:42:30.531Z,38.53
2018-11-07T02:44:57.962Z,41.08
2018-11-07T02:47:25.611Z,40.43
2018-11-07T02:49:52.980Z,37.93
2018-11-07T02:52:20.296Z,38.58
2018-11-07T02:54:47.685Z,38.05
2018-11-07T02:57:15.148Z,38.70
2018-11-07T02:59:42.487Z,40.80
2018-11-07T03:02:10.447Z,37.93
2018-11-07T03:04:38.104Z,37.80
2018-11-07T03:07:06.099Z,37.60
2018-11-07T03:09:33.780Z,38.67
2018-11-07T03:12:01.510Z,39.78
2018-11-07T03:14:28.894Z,41.05
2018-11-07T03:16:56.328Z,39.45
2018-11-07T03:19:23.952Z,40.50
2018-11-07T03:21:51.535Z,39.78
2018-11-07T03:24:19.153Z,39.63
2018-11-07T03:26:46.764Z,40.50
2018-11-07T03:29:14.461Z,42.80
2018-11-07T03:31:42.074Z,42.80
2018-11-07T03:34:09.474Z,42.83
2018-11-07T03:36:36.910Z,44.48
2018-11-07T03:39:06.738Z,43.90
2018-11-07T03:41:34.434Z,45.30
2018-11-07T03:44:02.121Z,45.80
2018-11-07T03:46:29.551Z,45.67
2018-11-07T03:48:57.007Z,45.10
2018-11-07T03:51:24.724Z,43.90
2018-11-07T03:53:52.377Z,45.88
2018-11-07T03:56:20.050Z,45.08
2018-11-07T03:58:48.427Z,45.92
2018-11-07T04:01:16.207Z,44.65
2018-11-07T04:03:44.461Z,45.50
2018-11-07T04:06:12.006Z,46.65
2018-11-07T04:08:39.371Z,45.20
2018-11-07T04:11:06.778Z,44.70
2018-11-07T04:13:34.183Z,45.83
2018-11-07T04:16:01.530Z,46.17
2018-11-07T04:18:29.270Z,46.60
2018-11-07T04:20:56.693Z,45.67
2018-11-07T04:23:24.178Z,44.33
2018-11-07T04:25:51.495Z,58.15
2018-11-07T04:28:19.524Z,49.40
2018-11-07T04:30:47.740Z,49.50
2018-11-07T04:33:15.115Z,50.53
2018-11-07T04:35:42.737Z,46.92
2018-11-07T04:38:10.413Z,45.00
2018-11-07T04:40:38.153Z,45.50
2018-11-07T04:43:06.140Z,46.13
2018-11-07T04:45:34.102Z,45.20
2018-11-07T04:48:01.822Z,45.38
2018-11-07T04:50:29.833Z,44.93
2018-11-07T04:52:57.531Z,45.83
2018-11-07T04:55:24.942Z,45.70
2018-11-07T04:57:52.308Z,44.73
2018-11-07T05:00:20.262Z,44.77
2018-11-07T05:02:47.593Z,46.50
2018-11-07T05:05:15.282Z,45.92
2018-11-07T05:07:42.957Z,43.23
2018-11-07T05:10:11.358Z,45.23
2018-11-07T05:12:38.897Z,46.60
2018-11-07T05:15:06.752Z,44.48
2018-11-07T05:17:34.400Z,44.67
2018-11-07T05:20:02.045Z,45.58
2018-11-07T05:22:29.769Z,45.48
2018-11-07T05:24:57.365Z,45.28
2018-11-07T05:27:25.079Z,47.95
2018-11-07T05:29:52.485Z,47.90
2018-11-07T05:32:19.870Z,46.65
2018-11-07T05:34:47.222Z,47.73
2018-11-07T05:37:14.864Z,47.30
2018-11-07T05:39:42.747Z,47.53
2018-11-07T05:42:10.143Z,47.48
2018-11-07T05:44:37.536Z,48.17
2018-11-07T05:47:05.462Z,49.67
2018-11-07T05:49:33.095Z,50.98
2018-11-07T05:52:00.533Z,50.28
2018-11-07T05:54:28.185Z,52.03
2018-11-07T05:56:55.639Z,52.67
2018-11-07T05:59:23.674Z,54.18
2018-11-07T06:01:51.434Z,54.08
2018-11-07T06:04:18.797Z,53.70
2018-11-07T06:06:46.480Z,53.40
2018-11-07T06:09:14.696Z,54.60
2018-11-07T06:11:42.301Z,55.97
2018-11-07T06:14:10.036Z,54.18
2018-11-07T06:16:37.828Z,54.93
2018-11-07T06:19:05.631Z,53.10
2018-11-07T06:21:33.502Z,52.80
2018-11-07T06:24:01.113Z,53.73
2018-11-07T06:26:28.781Z,52.90
2018-11-07T06:28:56.675Z,53.55
2018-11-07T06:31:24.362Z,53.73
2018-11-07T06:33:52.059Z,52.50
2018-11-07T06:36:19.621Z,52.30
2018-11-07T06:38:47.381Z,53.17
2018-11-07T06:41:14.825Z,54.15
2018-11-07T06:43:42.938Z,52.75
2018-11-07T06:46:10.269Z,55.38
2018-11-07T06:48:37.723Z,53.42
2018-11-07T06:51:05.076Z,51.13
2018-11-07T06:53:32.704Z,52.33
2018-11-07T06:56:00.085Z,50.95
2018-11-07T06:58:27.522Z,51.50
2018-11-07T07:00:54.932Z,49.03
2018-11-07T07:03:22.610Z,46.48
2018-11-07T07:05:50.030Z,44.90
2018-11-07T07:08:17.458Z,44.10
2018-11-07T07:10:44.779Z,41.85
2018-11-07T07:13:12.165Z,41.50
2018-11-07T07:15:39.608Z,40.80
2018-11-07T07:18:07.321Z,38.67
2018-11-07T07:20:34.979Z,38.40
2018-11-07T07:23:02.651Z,39.48
2018-11-07T07:25:30.084Z,39.83
2018-11-07T07:27:57.794Z,38.95
2018-11-07T07:30:25.235Z,39.20
2018-11-07T07:32:53.241Z,38.98
2018-11-07T07:35:20.811Z,38.00
2018-11-07T07:37:48.238Z,35.33
2018-11-07T07:40:16.495Z,34.80
2018-11-07T07:42:44.896Z,34.98
2018-11-07T07:45:16.652Z,33.92
2018-11-07T07:47:44.822Z,33.33
2018-11-07T07:50:13.996Z,33.10
2018-11-07T07:52:42.597Z,33.45
2018-11-07T07:55:10.990Z,33.67
2018-11-07T07:57:39.216Z,32.75
2018-11-07T08:00:11.428Z,33.65
2018-11-07T08:02:39.511Z,35.17
2018-11-07T08:05:06.942Z,35.17
2018-11-07T08:07:34.618Z,34.58
2018-11-07T08:10:02.273Z,36.42
2018-11-07T08:12:29.925Z,35.28
2018-11-07T08:14:57.838Z,34.90
2018-11-07T08:17:25.525Z,35.92
2018-11-07T08:19:52.828Z,34.88
2018-11-07T08:22:20.476Z,38.05
2018-11-07T08:24:47.899Z,34.40
2018-11-07T08:27:15.237Z,34.00
2018-11-07T08:29:42.590Z,33.40
2018-11-07T08:32:10.038Z,32.90
2018-11-07T08:34:38.225Z,33.38
2018-11-07T08:37:05.564Z,32.95
2018-11-07T08:39:32.887Z,32.65
2018-11-07T08:42:00.632Z,31.87
2018-11-07T08:44:28.849Z,32.03
2018-11-07T08:46:56.512Z,32.28
2018-11-07T08:49:24.173Z,32.67
2018-11-07T08:51:52.451Z,35.00
2018-11-07T08:54:20.058Z,32.33
2018-11-07T08:56:47.674Z,32.15
2018-11-07T08:59:16.400Z,32.13
2018-11-07T09:01:44.667Z,32.70
2018-11-07T09:04:12.366Z,31.87
2018-11-07T09:06:39.817Z,32.63
2018-11-07T09:09:08.339Z,31.60
2018-11-07T09:11:35.766Z,33.18
2018-11-07T09:14:03.121Z,32.80
2018-11-07T09:16:30.486Z,32.50
2018-11-07T09:18:57.994Z,32.17
2018-11-07T09:21:25.377Z,32.13
2018-11-07T09:23:52.776Z,32.30
2018-11-07T09:26:20.174Z,32.33
2018-11-07T09:28:47.793Z,31.70
2018-11-07T09:31:15.183Z,31.97
2018-11-07T09:33:42.908Z,30.77
2018-11-07T09:36:10.594Z,31.70
2018-11-07T09:38:37.942Z,31.80
2018-11-07T09:41:05.998Z,31.77
2018-11-07T09:43:33.424Z,30.68
2018-11-07T09:46:01.407Z,32.30
2018-11-07T09:48:28.821Z,30.83
2018-11-07T09:50:56.450Z,29.82
2018-11-07T09:53:23.842Z,30.80
2018-11-07T09:55:51.578Z,29.00
2018-11-07T09:58:19.804Z,28.10
2018-11-07T10:00:47.801Z,28.38
2018-11-07T10:03:15.420Z,28.73
2018-11-07T10:05:42.847Z,28.27
2018-11-07T10:08:10.467Z,29.02
2018-11-07T10:10:37.879Z,29.40
2018-11-07T10:13:05.627Z,26.95
2018-11-07T10:15:33.005Z,27.93
2018-11-07T10:18:00.642Z,26.85
2018-11-07T10:20:28.435Z,27.58
2018-11-07T10:22:56.123Z,26.80
2018-11-07T10:25:23.585Z,26.35
2018-11-07T10:27:51.595Z,25.20
2018-11-07T10:30:20.055Z,24.70
2018-11-07T10:32:48.818Z,25.12
2018-11-07T10:35:16.317Z,24.43
2018-11-07T10:37:44.100Z,24.92
2018-11-07T10:40:15.274Z,23.77
2018-11-07T10:42:42.810Z,23.10
2018-11-07T10:45:11.477Z,24.07
2018-11-07T10:47:39.450Z,23.40
2018-11-07T10:50:07.985Z,24.90
2018-11-07T10:52:35.645Z,26.60
2018-11-07T10:55:03.297Z,27.20
2018-11-07T10:57:31.011Z,24.67
2018-11-07T10:59:58.384Z,26.33
2018-11-07T11:02:31.597Z,26.82
2018-11-07T11:04:59.304Z,27.45
2018-11-07T11:07:27.605Z,25.43
2018-11-07T11:09:55.001Z,25.95
2018-11-07T11:12:22.697Z,25.90
2018-11-07T11:14:50.394Z,26.50
2018-11-07T11:17:18.116Z,26.90
2018-11-07T11:19:45.526Z,27.65
2018-11-07T11:22:13.019Z,26.65
2018-11-07T11:24:40.382Z,27.37
2018-11-07T11:27:07.748Z,27.60
2018-11-07T11:29:35.442Z,27.70
2018-11-07T11:32:03.100Z,28.60
2018-11-07T11:34:30.580Z,28.70
2018-11-07T11:36:57.853Z,28.40
2018-11-07T11:39:25.797Z,28.90
2018-11-07T11:41:54.365Z,27.90
2018-11-07T11:44:21.795Z,28.80
2018-11-07T11:46:49.763Z,28.02
2018-11-07T11:49:17.136Z,30.12
2018-11-07T11:51:44.778Z,30.35
2018-11-07T11:54:12.401Z,28.53
2018-11-07T11:56:39.784Z,29.18
2018-11-07T11:59:07.580Z,29.30
2018-11-07T12:01:35.149Z,29.35
2018-11-07T12:04:02.819Z,30.02
2018-11-07T12:06:30.207Z,30.15
2018-11-07T12:08:58.047Z,30.88
2018-11-07T12:11:25.340Z,30.97
2018-11-07T12:13:52.697Z,31.90
2018-11-07T12:16:20.422Z,31.33
2018-11-07T12:18:48.657Z,30.60
2018-11-07T12:21:16.358Z,32.10
2018-11-07T12:23:44.325Z,30.80
2018-11-07T12:26:11.646Z,31.27
2018-11-07T12:28:39.546Z,31.30
2018-11-07T12:31:06.928Z,30.62
2018-11-07T12:33:34.300Z,29.30
2018-11-07T12:36:01.853Z,29.77
2018-11-07T12:38:29.780Z,28.83
2018-11-07T12:40:57.515Z,27.80
2018-11-07T12:43:24.889Z,27.17
2018-11-07T12:45:52.275Z,28.47
2018-11-07T12:48:19.620Z,28.33
2018-11-07T12:50:47.595Z,28.70
2018-11-07T12:53:15.757Z,29.57
2018-11-07T12:55:43.405Z,27.70
2018-11-07T12:58:11.212Z,28.30
2018-11-07T13:00:38.638Z,29.30
2018-11-07T13:03:06.468Z,28.05
2018-11-07T13:05:34.595Z,27.40
2018-11-07T13:08:02.246Z,26.87
2018-11-07T13:10:29.857Z,28.87
2018-11-07T13:12:57.696Z,28.00
2018-11-07T13:15:25.228Z,29.15
2018-11-07T13:17:53.552Z,28.95
2018-11-07T13:20:22.448Z,30.23
2018-11-07T13:22:51.594Z,29.92
2018-11-07T13:25:19.375Z,29.50
2018-11-07T13:27:47.009Z,29.23
2018-11-07T13:30:16.698Z,29.13
2018-11-07T13:32:44.321Z,28.77
2018-11-07T13:35:12.616Z,32.20
2018-11-07T13:37:41.123Z,30.47
2018-11-07T13:40:09.945Z,26.95
2018-11-07T13:42:37.294Z,28.57
2018-11-07T13:45:05.279Z,28.60
2018-11-07T13:47:32.609Z,30.45
2018-11-07T13:50:00.555Z,30.60
2018-11-07T13:52:27.876Z,29.98
2018-11-07T13:54:55.227Z,31.23
2018-11-07T13:57:22.880Z,29.80
2018-11-07T13:59:50.258Z,30.40
2018-11-07T14:02:17.594Z,31.60
2018-11-07T14:04:45.225Z,32.40
2018-11-07T14:07:12.605Z,33.23
2018-11-07T14:09:40.672Z,34.80
2018-11-07T14:12:08.412Z,35.43
2018-11-07T14:14:36.067Z,34.78
2018-11-07T14:17:03.490Z,35.58
2018-11-07T14:19:30.909Z,35.20
2018-11-07T14:21:58.701Z,34.70
2018-11-07T14:24:26.385Z,34.92
2018-11-07T14:26:54.000Z,36.33
2018-11-07T14:29:21.657Z,34.58
2018-11-07T14:31:49.957Z,35.48
2018-11-07T14:34:31.344Z,36.28
2018-11-07T14:36:59.076Z,35.28
2018-11-07T14:39:26.598Z,36.17
2018-11-07T14:41:54.509Z,37.20
2018-11-07T14:44:22.148Z,36.70
2018-11-07T14:46:53.814Z,36.10
2018-11-07T14:49:22.326Z,37.35
2018-11-07T14:51:50.606Z,36.70
2018-11-07T14:54:18.445Z,35.50
2018-11-07T14:56:46.432Z,37.60
2018-11-07T14:59:14.685Z,37.63
2018-11-07T15:01:42.321Z,36.83
2018-11-07T15:04:09.815Z,38.20
2018-11-07T15:06:37.302Z,38.28
2018-11-07T15:09:06.753Z,38.70
2018-11-07T15:11:34.136Z,36.70
2018-11-07T15:14:02.139Z,37.85
2018-11-07T15:16:29.766Z,39.15
2018-11-07T15:18:57.430Z,38.73
2018-11-07T15:21:24.799Z,38.83
2018-11-07T15:23:52.156Z,40.77
2018-11-07T15:26:19.557Z,39.60
2018-11-07T15:28:47.855Z,39.40
2018-11-07T15:31:15.219Z,39.95
2018-11-07T15:33:42.521Z,39.03
2018-11-07T15:36:10.297Z,39.75
2018-11-07T15:38:38.126Z,41.42
2018-11-07T15:41:05.866Z,41.83
2018-11-07T15:43:33.593Z,45.58
2018-11-07T15:46:01.155Z,43.50
2018-11-07T15:48:28.850Z,42.25
2018-11-07T15:51:01.585Z,41.27
2018-11-07T15:53:29.225Z,44.13
2018-11-07T15:55:56.945Z,43.35
2018-11-07T15:58:24.300Z,43.23
2018-11-07T16:00:51.936Z,44.20
2018-11-07T16:03:24.532Z,43.80
2018-11-07T16:05:52.185Z,44.33
2018-11-07T16:08:19.797Z,45.08
2018-11-07T16:10:48.399Z,45.52
2018-11-07T16:13:16.125Z,44.48
2018-11-07T16:15:43.630Z,46.10
2018-11-07T16:18:11.551Z,45.83
2018-11-07T16:20:39.641Z,44.08
2018-11-07T16:23:08.498Z,44.13
2018-11-07T16:25:37.341Z,45.50
2018-11-07T16:28:07.949Z,45.38
2018-11-07T16:30:37.256Z,45.95
2018-11-07T16:33:05.874Z,44.20
2018-11-07T16:35:33.603Z,44.33
2018-11-07T16:38:01.934Z,45.90
2018-11-07T16:40:29.557Z,45.98
2018-11-07T16:42:57.386Z,46.85
2018-11-07T16:45:27.062Z,48.00
2018-11-07T16:47:58.519Z,47.20
2018-11-07T16:50:31.645Z,44.75
2018-11-07T16:53:01.169Z,46.30
2018-11-07T16:55:31.527Z,45.70
2018-11-07T16:57:59.133Z,45.17
2018-11-07T17:00:27.064Z,46.85
2018-11-07T17:02:54.765Z,46.25
2018-11-07T17:05:23.821Z,46.50
2018-11-07T17:07:51.742Z,46.53
2018-11-07T17:10:29.150Z,45.58
2018-11-07T17:12:56.798Z,46.50
2018-11-07T17:15:25.167Z,45.50
2018-11-07T17:17:53.970Z,46.53
2018-11-07T17:20:25.627Z,47.10
2018-11-07T17:23:01.204Z,46.58
2018-11-07T17:25:31.976Z,45.45
2018-11-07T17:28:02.375Z,46.10
2018-11-07T17:30:32.209Z,45.20
2018-11-07T17:33:00.008Z,46.00
2018-11-07T17:35:27.379Z,45.20
2018-11-07T17:37:54.739Z,44.90
2018-11-07T17:40:24.637Z,42.90
2018-11-07T17:42:53.500Z,44.20
2018-11-07T17:45:22.313Z,42.97
2018-11-07T17:47:51.594Z,42.62
2018-11-07T17:50:20.788Z,43.95
2018-11-07T17:52:49.802Z,43.10
2018-11-07T17:55:18.985Z,43.23
2018-11-07T17:57:47.240Z,41.60
2018-11-07T18:00:17.556Z,41.90
2018-11-07T18:02:45.978Z,41.85
2018-11-07T18:05:14.680Z,40.55
2018-11-07T18:07:42.799Z,65.87
2018-11-07T18:10:13.034Z,52.50
2018-11-07T18:12:41.325Z,40.10
2018-11-07T18:15:09.070Z,45.90
2018-11-07T18:17:36.808Z,41.92
2018-11-07T18:20:04.932Z,38.90
2018-11-07T18:25:06.640Z,39.88
2018-11-07T18:27:34.714Z,39.33
2018-11-07T18:30:02.102Z,38.50
2018-11-07T18:32:29.606Z,39.23
2018-11-07T18:34:57.020Z,38.50
2018-11-07T18:37:24.374Z,38.20
2018-11-07T18:39:52.120Z,38.20
2018-11-07T18:42:19.536Z,37.75
2018-11-07T18:44:46.859Z,38.37
2018-11-07T18:47:14.492Z,37.60
2018-11-07T18:49:42.174Z,37.00
2018-11-07T18:52:10.106Z,37.03
2018-11-07T18:54:37.785Z,37.60
2018-11-07T18:57:05.321Z,37.75
2018-11-07T18:59:32.748Z,37.38
2018-11-07T19:02:00.077Z,37.48
2018-11-07T19:04:27.501Z,36.90
2018-11-07T19:06:54.929Z,37.23
2018-11-07T19:09:22.627Z,37.93
2018-11-07T19:11:50.270Z,37.50
2018-11-07T19:14:18.244Z,36.63
2018-11-07T19:16:45.659Z,36.25
2018-11-07T19:19:13.298Z,37.55
2018-11-07T19:21:40.930Z,36.68
2018-11-07T19:24:08.306Z,36.23
2018-11-07T19:26:36.063Z,36.77
2018-11-07T19:29:04.231Z,35.55
2018-11-07T19:31:32.207Z,36.77
2018-11-07T19:34:00.066Z,35.48
2018-11-07T19:36:27.440Z,36.08
2018-11-07T19:38:54.875Z,34.70
2018-11-07T19:41:22.250Z,35.40
2018-11-07T19:43:50.201Z,35.05
2018-11-07T19:46:18.001Z,35.58
2018-11-07T19:48:45.418Z,34.53
2018-11-07T19:51:13.114Z,35.15
2018-11-07T19:53:40.567Z,35.20
2018-11-07T19:56:07.954Z,34.03
2018-11-07T19:58:35.311Z,35.10
2018-11-07T20:01:02.730Z,35.65
2018-11-07T20:03:30.281Z,34.70
2018-11-07T20:05:58.221Z,33.73
2018-11-07T20:08:25.844Z,33.58
2018-11-07T20:10:53.246Z,33.78
2018-11-07T20:13:20.674Z,34.38
2018-11-07T20:15:48.363Z,33.70
2018-11-07T20:18:15.964Z,34.30
2018-11-07T20:20:43.314Z,34.53
2018-11-07T20:23:10.770Z,33.73
2018-11-07T20:25:38.413Z,34.10
2018-11-07T20:28:05.865Z,34.08
2018-11-07T20:30:33.224Z,32.63
2018-11-07T20:33:00.978Z,32.97
2018-11-07T20:35:28.394Z,32.85
2018-11-07T20:37:56.035Z,33.63
2018-11-07T20:40:23.438Z,33.88
2018-11-07T20:42:50.929Z,33.20
2018-11-07T20:45:19.026Z,33.20
2018-11-07T20:47:46.557Z,33.83
2018-11-07T20:50:15.552Z,33.38
2018-11-07T20:52:43.733Z,34.40
2018-11-07T20:55:11.933Z,33.90
2018-11-07T20:57:39.408Z,34.70
2018-11-07T21:00:09.809Z,34.20
2018-11-07T21:02:37.150Z,33.90
2018-11-07T21:07:24.884Z,35.07
2018-11-07T21:09:52.243Z,34.98
2018-11-07T21:12:19.920Z,34.50
2018-11-07T21:14:47.281Z,34.92
2018-11-07T21:17:14.696Z,34.40
2018-11-07T21:19:42.383Z,35.50
2018-11-07T21:22:10.579Z,34.13
2018-11-07T21:24:38.321Z,33.80
2018-11-07T21:27:06.385Z,33.70
2018-11-07T21:29:33.853Z,33.53
2018-11-07T21:32:01.299Z,33.92
2018-11-07T21:34:28.665Z,34.10
2018-11-07T21:36:56.437Z,34.30
2018-11-07T21:39:24.139Z,35.03
2018-11-07T21:41:51.810Z,35.28
2018-11-07T21:44:19.154Z,33.85
2018-11-07T21:46:46.501Z,34.88
2018-11-07T21:49:14.126Z,34.00
2018-11-07T21:51:41.816Z,33.25
2018-11-07T21:54:09.228Z,34.58
2018-11-07T21:56:36.643Z,34.78
2018-11-07T21:59:04.255Z,36.50
2018-11-07T22:01:31.668Z,39.27
2018-11-07T22:03:59.141Z,30.65
2018-11-07T22:06:26.553Z,32.80
2018-11-07T22:08:53.916Z,32.98
2018-11-07T22:11:21.634Z,33.40
2018-11-07T22:13:49.318Z,33.50
2018-11-07T22:16:16.757Z,34.60
2018-11-07T22:18:44.206Z,33.30
2018-11-07T22:21:11.578Z,35.15
2018-11-07T22:23:39.569Z,35.70
2018-11-07T22:26:06.989Z,34.27
2018-11-07T22:28:34.679Z,34.80
2018-11-07T22:31:02.350Z,33.10
2018-11-07T22:33:30.049Z,31.12
2018-11-07T22:35:57.468Z,33.85
2018-11-07T22:38:24.792Z,33.98
2018-11-07T22:40:52.384Z,33.45
2018-11-07T22:43:19.761Z,34.40
2018-11-07T22:45:47.108Z,35.38
2018-11-07T22:48:14.834Z,34.73
2018-11-07T22:50:42.532Z,33.90
2018-11-07T22:53:09.944Z,34.60
2018-11-07T22:55:37.313Z,33.42
2018-11-07T22:58:05.193Z,32.63
2018-11-07T23:00:38.013Z,33.10
2018-11-07T23:03:05.413Z,32.78
2018-11-07T23:05:32.992Z,35.52
2018-11-07T23:08:00.413Z,32.73
2018-11-07T23:10:28.003Z,31.80
2018-11-07T23:12:55.678Z,29.00
2018-11-07T23:15:28.867Z,30.05
2018-11-07T23:17:56.206Z,31.00
2018-11-07T23:20:23.609Z,31.97
2018-11-07T23:22:50.969Z,30.20
2018-11-07T23:25:19.061Z,29.98
2018-11-07T23:27:46.722Z,31.30
2018-11-07T23:30:14.041Z,30.68
2018-11-07T23:32:42.109Z,30.80
2018-11-07T23:35:09.542Z,30.20
2018-11-07T23:37:37.216Z,31.95
2018-11-07T23:40:05.290Z,28.98
2018-11-07T23:42:46.050Z,27.07
2018-11-07T23:45:13.369Z,27.32
2018-11-07T23:47:41.069Z,29.42
2018-11-07T23:50:09.236Z,27.35
2018-11-07T23:52:42.414Z,30.62
2018-11-07T23:55:10.094Z,30.27
2018-11-07T23:57:38.084Z,28.67
